Time;durP1;ratioP1;P1;durP2;ratioP2;P2;SDS_P1;SDS_P2;PMS_P1;PMS_P2;Temp;Humidity;BMP_temperature;BMP_pressure;BME280_temperature;BME280_humidity;BME280_pressure;Samples;Min_cycle;Max_cycle;Signal;HPM_P1;HPM_P2
2022/07/30 00:01:50;;;;;;;6.40;5.23;;;;;;;;;;5052065;28;20287;-55
2022/07/30 00:04:16;;;;;;;5.70;5.10;;;;;;;;;;5054409;28;20641;-54
2022/07/30 00:06:42;;;;;;;6.60;6.00;;;;;;;;;;5054469;28;20205;-55
2022/07/30 00:09:08;;;;;;;6.43;5.77;;;;;;;;;;5054143;28;20231;-55
2022/07/30 00:11:34;;;;;;;10.60;9.50;;;;;;;;;;5054252;28;20283;-55
2022/07/30 00:14:01;;;;;;;7.87;7.17;;;;;;;;;;5053767;28;20210;-55
2022/07/30 00:16:28;;;;;;;6.33;5.57;;;;;;;;;;5053707;28;20215;-54
2022/07/30 00:18:54;;;;;;;6.10;5.53;;;;;;;;;;5054055;28;20283;-54
2022/07/30 00:21:20;;;;;;;6.97;6.03;;;;;;;;;;5053174;28;20636;-55
2022/07/30 00:23:46;;;;;;;8.00;6.60;;;;;;;;;;5054203;28;20279;-54
2022/07/30 00:26:12;;;;;;;7.47;6.23;;;;;;;;;;5053803;28;20604;-54
2022/07/30 00:28:38;;;;;;;6.70;5.97;;;;;;;;;;5053734;28;20745;-55
2022/07/30 00:31:04;;;;;;;6.37;5.47;;;;;;;;;;5053613;28;20242;-55
2022/07/30 00:33:31;;;;;;;6.00;5.30;;;;;;;;;;5053910;28;20209;-55
2022/07/30 00:35:57;;;;;;;6.17;5.57;;;;;;;;;;5053908;28;20227;-55
2022/07/30 00:38:23;;;;;;;6.73;6.13;;;;;;;;;;5053474;28;20662;-55
2022/07/30 00:40:49;;;;;;;6.50;5.83;;;;;;;;;;5053641;28;20250;-55
2022/07/30 00:43:15;;;;;;;8.27;5.77;;;;;;;;;;5053330;28;20266;-54
2022/07/30 00:45:41;;;;;;;11.10;6.13;;;;;;;;;;5053257;28;20234;-54
2022/07/30 00:48:07;;;;;;;6.30;5.70;;;;;;;;;;5052911;28;20300;-54
2022/07/30 00:50:35;;;;;;;8.20;6.10;;;;;;;;;;5053598;28;20741;-55
2022/07/30 00:53:01;;;;;;;8.10;6.30;;;;;;;;;;5053600;28;20288;-54
2022/07/30 00:55:27;;;;;;;9.17;6.63;;;;;;;;;;5053473;28;20303;-54
2022/07/30 00:57:52;;;;;;;15.60;14.07;;;;;;;;;;5053313;28;20200;-54
2022/07/30 01:00:19;;;;;;;8.83;7.10;;;;;;;;;;5053090;28;20606;-54
2022/07/30 01:02:45;;;;;;;11.53;10.37;;;;;;;;;;5053205;28;20235;-55
2022/07/30 01:05:11;;;;;;;8.10;6.53;;;;;;;;;;5053022;28;20262;-55
2022/07/30 01:07:38;;;;;;;7.30;6.60;;;;;;;;;;5053107;28;20261;-55
2022/07/30 01:10:05;;;;;;;6.90;6.20;;;;;;;;;;5052904;28;20229;-54
2022/07/30 01:12:31;;;;;;;5.97;5.47;;;;;;;;;;5052971;28;20211;-55
2022/07/30 01:14:57;;;;;;;6.87;6.27;;;;;;;;;;5053084;28;20223;-55
2022/07/30 01:17:24;;;;;;;7.67;6.40;;;;;;;;;;5052691;28;20205;-55
2022/07/30 01:19:51;;;;;;;6.43;5.83;;;;;;;;;;5052613;28;20272;-55
2022/07/30 01:22:21;;;;;;;6.57;5.97;;;;;;;;;;5052691;28;20217;-55
2022/07/30 01:24:51;;;;;;;7.60;6.30;;;;;;;;;;5052897;28;20196;-54
2022/07/30 01:27:20;;;;;;;10.03;6.63;;;;;;;;;;5052655;28;20198;-54
2022/07/30 01:29:47;;;;;;;7.93;7.13;;;;;;;;;;5052725;28;20274;-54
2022/07/30 01:32:14;;;;;;;13.97;12.77;;;;;;;;;;5052551;28;20200;-54
2022/07/30 01:34:42;;;;;;;8.80;7.87;;;;;;;;;;5052631;28;20207;-54
2022/07/30 01:37:09;;;;;;;11.97;7.70;;;;;;;;;;5052380;28;20662;-54
2022/07/30 01:39:35;;;;;;;8.07;7.30;;;;;;;;;;5052434;28;20201;-54
2022/07/30 01:42:04;;;;;;;7.80;6.83;;;;;;;;;;5052496;28;20201;-54
2022/07/30 01:44:31;;;;;;;8.13;6.87;;;;;;;;;;5052274;28;20733;-55
2022/07/30 01:46:57;;;;;;;8.63;6.70;;;;;;;;;;5052389;28;20204;-54
2022/07/30 01:49:25;;;;;;;9.33;6.33;;;;;;;;;;5052151;28;20238;-54
2022/07/30 01:51:52;;;;;;;7.10;6.33;;;;;;;;;;5051992;28;20204;-54
2022/07/30 01:54:20;;;;;;;7.67;6.60;;;;;;;;;;5052256;28;20208;-54
2022/07/30 01:56:47;;;;;;;7.67;6.67;;;;;;;;;;5052217;28;20655;-54
2022/07/30 01:59:15;;;;;;;8.20;7.40;;;;;;;;;;5051406;28;20189;-54
2022/07/30 02:01:42;;;;;;;9.30;7.13;;;;;;;;;;5052032;28;20197;-54
2022/07/30 02:04:09;;;;;;;7.77;6.90;;;;;;;;;;5052134;28;20206;-53
2022/07/30 02:06:37;;;;;;;7.67;6.97;;;;;;;;;;5052140;28;20248;-53
2022/07/30 02:09:04;;;;;;;8.97;7.00;;;;;;;;;;5051932;28;20278;-53
2022/07/30 02:14:19;;;;;;;7.07;6.47;;;;;;;;;;5052081;28;20190;-53
2022/07/30 02:16:49;;;;;;;8.57;7.77;;;;;;;;;;5052007;28;20296;-53
2022/07/30 02:19:16;;;;;;;8.17;7.13;;;;;;;;;;5052041;28;20279;-53
2022/07/30 02:21:45;;;;;;;9.30;7.37;;;;;;;;;;5051936;28;20685;-53
2022/07/30 02:24:12;;;;;;;10.30;8.07;;;;;;;;;;5051786;28;20543;-53
2022/07/30 02:26:39;;;;;;;8.33;7.13;;;;;;;;;;5052027;28;20205;-54
2022/07/30 02:29:07;;;;;;;8.23;7.37;;;;;;;;;;5051654;28;20224;-53
2022/07/30 02:31:33;;;;;;;8.13;7.33;;;;;;;;;;5051933;28;20250;-54
2022/07/30 02:34:03;;;;;;;9.07;7.03;;;;;;;;;;5051923;28;20207;-54
2022/07/30 02:36:30;;;;;;;12.37;7.73;;;;;;;;;;5051958;28;20201;-54
2022/07/30 02:38:56;;;;;;;9.33;7.77;;;;;;;;;;5051853;28;20196;-54
2022/07/30 02:41:23;;;;;;;9.53;7.80;;;;;;;;;;5051702;28;20200;-54
2022/07/30 02:43:50;;;;;;;9.57;7.90;;;;;;;;;;5051556;28;20244;-54
2022/07/30 02:46:17;;;;;;;8.20;7.40;;;;;;;;;;5051717;28;20286;-54
2022/07/30 02:48:44;;;;;;;8.93;7.63;;;;;;;;;;5051651;28;20757;-54
2022/07/30 02:51:13;;;;;;;9.67;8.37;;;;;;;;;;5051606;28;20208;-54
2022/07/30 02:53:39;;;;;;;8.27;7.37;;;;;;;;;;5051650;28;20212;-53
2022/07/30 02:56:07;;;;;;;9.30;8.40;;;;;;;;;;5051521;28;20246;-54
2022/07/30 02:58:34;;;;;;;9.67;8.33;;;;;;;;;;5051201;28;20200;-54
2022/07/30 03:01:01;;;;;;;8.97;8.17;;;;;;;;;;5051618;28;20205;-54
2022/07/30 03:03:28;;;;;;;13.63;8.70;;;;;;;;;;5051532;28;20209;-54
2022/07/30 03:05:54;;;;;;;9.13;8.13;;;;;;;;;;5051492;28;20667;-55
2022/07/30 03:08:22;;;;;;;9.23;8.33;;;;;;;;;;5051211;28;20565;-54
2022/07/30 03:10:49;;;;;;;9.00;8.20;;;;;;;;;;5054277;28;20205;-55
2022/07/30 03:13:16;;;;;;;9.97;8.37;;;;;;;;;;5054857;28;20279;-54
2022/07/30 03:15:45;;;;;;;9.83;8.57;;;;;;;;;;5055237;28;20200;-55
2022/07/30 03:18:12;;;;;;;10.20;8.97;;;;;;;;;;5055063;28;20193;-54
2022/07/30 03:20:38;;;;;;;13.83;8.63;;;;;;;;;;5055174;28;20202;-55
2022/07/30 03:23:05;;;;;;;9.53;8.60;;;;;;;;;;5054925;28;20242;-55
2022/07/30 03:25:33;;;;;;;14.70;9.47;;;;;;;;;;5054985;28;20201;-55
2022/07/30 03:28:01;;;;;;;9.77;7.77;;;;;;;;;;5054929;28;20681;-54
2022/07/30 03:30:27;;;;;;;9.40;8.47;;;;;;;;;;5054629;28;20270;-54
2022/07/30 03:32:54;;;;;;;8.27;7.43;;;;;;;;;;5054860;28;20209;-55
2022/07/30 03:35:21;;;;;;;12.20;8.73;;;;;;;;;;5054698;28;20202;-55
2022/07/30 03:37:47;;;;;;;10.73;8.57;;;;;;;;;;5054652;28;20239;-55
2022/07/30 03:40:14;;;;;;;9.57;7.67;;;;;;;;;;5054705;28;20199;-55
2022/07/30 03:42:42;;;;;;;9.53;8.53;;;;;;;;;;5054749;28;20279;-55
2022/07/30 03:45:08;;;;;;;12.67;9.37;;;;;;;;;;5054274;28;20293;-55
2022/07/30 03:47:37;;;;;;;8.70;7.77;;;;;;;;;;5054661;28;20330;-55
2022/07/30 03:50:03;;;;;;;10.67;7.97;;;;;;;;;;5054279;28;20228;-55
2022/07/30 03:52:31;;;;;;;10.43;7.77;;;;;;;;;;5054486;28;20663;-55
2022/07/30 03:54:57;;;;;;;9.47;7.77;;;;;;;;;;5054537;28;20532;-55
2022/07/30 03:57:23;;;;;;;8.40;7.33;;;;;;;;;;5054399;28;20205;-55
2022/07/30 03:59:51;;;;;;;7.83;7.10;;;;;;;;;;5054484;28;20224;-55
2022/07/30 04:02:17;;;;;;;8.37;7.50;;;;;;;;;;5054314;28;20257;-55
2022/07/30 04:04:43;;;;;;;8.87;7.47;;;;;;;;;;5054430;28;20250;-54
2022/07/30 04:07:09;;;;;;;8.60;7.63;;;;;;;;;;5054163;28;20200;-55
2022/07/30 04:09:35;;;;;;;12.10;8.53;;;;;;;;;;5054071;28;20235;-56
2022/07/30 04:12:01;;;;;;;9.27;8.30;;;;;;;;;;5054068;28;20587;-55
2022/07/30 04:14:37;;;;;;;9.83;8.60;;;;;;;;;;5054090;28;20192;-55
2022/07/30 04:17:06;;;;;;;11.30;9.97;;;;;;;;;;5054060;28;20602;-55
2022/07/30 04:19:35;;;;;;;11.60;9.73;;;;;;;;;;5054053;28;20250;-55
2022/07/30 04:22:01;;;;;;;13.10;9.83;;;;;;;;;;5053138;28;20200;-55
2022/07/30 04:24:28;;;;;;;10.97;9.30;;;;;;;;;;5054033;28;20207;-55
2022/07/30 04:26:54;;;;;;;10.53;9.13;;;;;;;;;;5053971;28;20273;-56
2022/07/30 04:29:20;;;;;;;13.83;10.60;;;;;;;;;;5053529;28;20224;-55
2022/07/30 04:31:46;;;;;;;9.67;8.63;;;;;;;;;;5053703;28;20188;-55
2022/07/30 04:34:14;;;;;;;10.67;9.20;;;;;;;;;;5053655;28;20245;-56
2022/07/30 04:36:40;;;;;;;11.83;10.63;;;;;;;;;;5053734;28;20258;-55
2022/07/30 04:39:06;;;;;;;11.77;10.57;;;;;;;;;;5053567;28;20200;-54
2022/07/30 04:41:32;;;;;;;11.03;9.00;;;;;;;;;;5053743;28;20287;-55
2022/07/30 04:43:58;;;;;;;11.20;9.77;;;;;;;;;;5053155;28;20236;-54
2022/07/30 04:46:24;;;;;;;10.87;9.87;;;;;;;;;;5053412;28;20259;-55
2022/07/30 04:48:50;;;;;;;9.83;8.87;;;;;;;;;;5053416;28;20710;-55
2022/07/30 04:51:20;;;;;;;11.07;10.07;;;;;;;;;;5053335;28;20559;-55
2022/07/30 04:53:47;;;;;;;11.63;10.43;;;;;;;;;;5053513;28;20208;-55
2022/07/30 04:56:14;;;;;;;11.10;10.07;;;;;;;;;;5053297;28;20250;-54
2022/07/30 04:58:40;;;;;;;10.37;9.47;;;;;;;;;;5053370;28;20224;-55
2022/07/30 05:01:08;;;;;;;10.67;9.70;;;;;;;;;;5052979;28;20224;-56
2022/07/30 05:03:34;;;;;;;10.97;9.93;;;;;;;;;;5052915;28;20727;-55
2022/07/30 05:06:01;;;;;;;12.97;10.00;;;;;;;;;;5053265;28;20603;-55
2022/07/30 05:08:28;;;;;;;10.43;9.47;;;;;;;;;;5052950;28;20200;-55
2022/07/30 05:10:54;;;;;;;10.20;9.30;;;;;;;;;;5053119;28;20258;-55
2022/07/30 05:13:20;;;;;;;9.97;8.63;;;;;;;;;;5052818;28;20730;-55
2022/07/30 05:15:47;;;;;;;9.50;8.70;;;;;;;;;;5052841;28;20555;-55
2022/07/30 05:18:13;;;;;;;10.63;9.63;;;;;;;;;;5052864;28;20200;-55
2022/07/30 05:20:39;;;;;;;11.03;9.03;;;;;;;;;;5052963;28;20602;-54
2022/07/30 05:23:06;;;;;;;10.27;9.33;;;;;;;;;;5052670;28;20201;-55
2022/07/30 05:25:33;;;;;;;10.67;9.57;;;;;;;;;;5052777;28;20525;-55
2022/07/30 05:27:59;;;;;;;10.83;9.63;;;;;;;;;;5052817;28;20204;-55
2022/07/30 05:30:25;;;;;;;11.07;9.47;;;;;;;;;;5052450;28;20319;-54
2022/07/30 05:32:51;;;;;;;10.17;9.17;;;;;;;;;;5052543;28;20223;-55
2022/07/30 05:35:17;;;;;;;9.90;8.90;;;;;;;;;;5052531;28;20207;-55
2022/07/30 05:37:43;;;;;;;10.17;9.20;;;;;;;;;;5052710;28;20203;-55
2022/07/30 05:40:09;;;;;;;8.93;8.10;;;;;;;;;;5052256;28;20200;-56
2022/07/30 05:42:37;;;;;;;10.80;9.07;;;;;;;;;;5052561;28;20208;-56
2022/07/30 05:45:03;;;;;;;10.07;7.83;;;;;;;;;;5052069;28;20244;-55
2022/07/30 05:47:29;;;;;;;8.37;7.67;;;;;;;;;;5052280;28;20673;-55
2022/07/30 05:49:55;;;;;;;8.77;7.87;;;;;;;;;;5052298;28;20294;-56
2022/07/30 05:52:21;;;;;;;10.00;9.00;;;;;;;;;;5052196;28;20659;-55
2022/07/30 05:54:47;;;;;;;8.53;7.70;;;;;;;;;;5052473;28;20249;-56
2022/07/30 05:57:13;;;;;;;9.80;8.63;;;;;;;;;;5052119;28;20205;-55
2022/07/30 05:59:40;;;;;;;8.77;8.07;;;;;;;;;;5052240;28;20215;-56
2022/07/30 06:02:06;;;;;;;8.87;8.17;;;;;;;;;;5052063;28;20537;-55
2022/07/30 06:04:34;;;;;;;9.50;7.87;;;;;;;;;;5052176;28;20200;-55
2022/07/30 06:07:00;;;;;;;8.37;7.57;;;;;;;;;;5052188;28;20257;-54
2022/07/30 06:09:26;;;;;;;8.70;8.00;;;;;;;;;;5051905;28;20662;-54
2022/07/30 06:11:52;;;;;;;7.30;6.70;;;;;;;;;;5051985;28;20223;-54
2022/07/30 06:14:18;;;;;;;8.17;7.27;;;;;;;;;;5052041;28;20595;-54
2022/07/30 06:16:45;;;;;;;8.77;7.93;;;;;;;;;;5051418;28;20636;-54
2022/07/30 06:19:11;;;;;;;9.50;7.67;;;;;;;;;;5051702;28;20199;-55
2022/07/30 06:21:37;;;;;;;9.60;7.50;;;;;;;;;;5052075;28;20567;-55
2022/07/30 06:24:03;;;;;;;10.53;8.50;;;;;;;;;;5051772;28;20259;-55
2022/07/30 06:26:29;;;;;;;8.57;7.60;;;;;;;;;;5051769;28;20204;-55
2022/07/30 06:28:55;;;;;;;8.03;7.33;;;;;;;;;;5051889;28;20257;-55
2022/07/30 06:31:21;;;;;;;7.60;6.97;;;;;;;;;;5051498;28;20317;-55
2022/07/30 06:33:49;;;;;;;7.30;6.60;;;;;;;;;;5051909;28;20188;-55
2022/07/30 06:36:15;;;;;;;7.07;6.47;;;;;;;;;;5051770;28;20205;-55
2022/07/30 06:38:41;;;;;;;6.80;6.20;;;;;;;;;;5051730;28;20215;-55
2022/07/30 06:41:07;;;;;;;7.57;6.87;;;;;;;;;;5051740;28;20201;-55
2022/07/30 06:43:33;;;;;;;8.57;7.70;;;;;;;;;;5051460;28;20275;-55
2022/07/30 06:45:59;;;;;;;6.93;6.23;;;;;;;;;;5054966;28;20671;-55
2022/07/30 06:48:25;;;;;;;8.20;6.57;;;;;;;;;;5055364;28;20250;-55
2022/07/30 06:50:53;;;;;;;7.67;6.87;;;;;;;;;;5055540;28;20203;-55
2022/07/30 06:53:18;;;;;;;10.07;7.37;;;;;;;;;;5055614;28;20224;-55
2022/07/30 06:55:44;;;;;;;8.47;7.67;;;;;;;;;;5054635;28;20641;-55
2022/07/30 06:58:10;;;;;;;8.27;7.33;;;;;;;;;;5055454;28;20205;-55
2022/07/30 07:00:36;;;;;;;8.10;7.30;;;;;;;;;;5055244;28;20223;-55
2022/07/30 07:03:02;;;;;;;8.13;7.43;;;;;;;;;;5055511;28;20299;-55
2022/07/30 07:05:29;;;;;;;7.43;6.70;;;;;;;;;;5055384;28;20209;-55
2022/07/30 07:07:56;;;;;;;7.90;7.17;;;;;;;;;;5055179;28;20274;-55
2022/07/30 07:10:22;;;;;;;11.77;7.90;;;;;;;;;;5055126;28;20224;-55
2022/07/30 07:12:48;;;;;;;8.37;7.67;;;;;;;;;;5054998;28;20212;-55
2022/07/30 07:15:14;;;;;;;7.27;6.57;;;;;;;;;;5054562;28;20699;-55
2022/07/30 07:17:40;;;;;;;6.90;6.20;;;;;;;;;;5054876;28;20205;-55
2022/07/30 07:20:07;;;;;;;7.40;6.63;;;;;;;;;;5054788;28;20209;-55
2022/07/30 07:22:33;;;;;;;6.57;5.97;;;;;;;;;;5054908;28;20196;-55
2022/07/30 07:25:00;;;;;;;8.23;7.43;;;;;;;;;;5055102;28;20201;-55
2022/07/30 07:27:26;;;;;;;8.20;6.77;;;;;;;;;;5054728;28;20689;-55
2022/07/30 07:29:52;;;;;;;8.10;7.40;;;;;;;;;;5054673;28;20724;-55
2022/07/30 07:32:18;;;;;;;6.87;5.83;;;;;;;;;;5054794;28;20192;-55
2022/07/30 07:34:44;;;;;;;6.20;5.60;;;;;;;;;;5054905;28;20655;-55
2022/07/30 07:37:10;;;;;;;7.13;6.53;;;;;;;;;;5054687;28;20211;-55
2022/07/30 07:39:36;;;;;;;6.57;6.07;;;;;;;;;;5054675;28;20547;-55
2022/07/30 07:42:03;;;;;;;6.63;5.57;;;;;;;;;;5054806;28;20281;-55
2022/07/30 07:44:29;;;;;;;6.70;5.33;;;;;;;;;;5054277;28;20616;-55
2022/07/30 07:46:55;;;;;;;7.97;5.70;;;;;;;;;;5054592;28;20285;-55
2022/07/30 07:49:21;;;;;;;5.83;5.33;;;;;;;;;;5054348;28;20632;-55
2022/07/30 07:51:47;;;;;;;6.27;5.37;;;;;;;;;;5054493;28;20208;-55
2022/07/30 07:54:13;;;;;;;5.80;5.30;;;;;;;;;;5054199;28;20246;-55
2022/07/30 07:56:39;;;;;;;6.40;5.50;;;;;;;;;;5053070;28;20227;-55
2022/07/30 07:59:07;;;;;;;6.40;5.80;;;;;;;;;;5054418;28;20222;-55
2022/07/30 08:01:33;;;;;;;6.47;5.50;;;;;;;;;;5054097;28;20707;-55
2022/07/30 08:03:59;;;;;;;6.40;5.80;;;;;;;;;;5054424;28;20202;-56
2022/07/30 08:06:25;;;;;;;6.87;5.43;;;;;;;;;;5053884;28;20205;-55
2022/07/30 08:08:52;;;;;;;6.50;5.90;;;;;;;;;;5053177;28;20228;-55
2022/07/30 08:11:18;;;;;;;5.23;4.73;;;;;;;;;;5053941;28;20208;-55
2022/07/30 08:13:44;;;;;;;5.97;5.17;;;;;;;;;;5054277;28;20193;-55
2022/07/30 08:16:13;;;;;;;5.03;4.47;;;;;;;;;;5053841;28;20680;-55
2022/07/30 08:18:39;;;;;;;6.93;4.77;;;;;;;;;;5053719;28;20306;-55
2022/07/30 08:21:07;;;;;;;5.10;4.53;;;;;;;;;;5053806;28;20301;-55
2022/07/30 08:23:33;;;;;;;5.77;4.40;;;;;;;;;;5053792;28;20263;-55
2022/07/30 08:25:59;;;;;;;5.73;4.83;;;;;;;;;;5053834;28;20625;-55
2022/07/30 08:28:26;;;;;;;5.97;5.20;;;;;;;;;;5053106;28;20210;-55
2022/07/30 08:30:52;;;;;;;6.23;5.17;;;;;;;;;;5046687;28;20321;-51
2022/07/30 08:33:19;;;;;;;5.33;4.83;;;;;;;;;;5065085;28;20706;-52
2022/07/30 08:35:45;;;;;;;6.67;4.77;;;;;;;;;;5073712;28;20203;-52
2022/07/30 08:38:12;;;;;;;5.30;4.77;;;;;;;;;;5073389;28;20221;-52
2022/07/30 08:40:38;;;;;;;6.83;5.17;;;;;;;;;;5072709;28;20214;-52
2022/07/30 08:43:04;;;;;;;8.13;4.90;;;;;;;;;;5071834;28;20295;-52
2022/07/30 08:45:31;;;;;;;6.27;5.17;;;;;;;;;;5071078;28;20237;-52
2022/07/30 08:47:57;;;;;;;6.43;5.27;;;;;;;;;;5073267;28;20202;-52
2022/07/30 08:50:24;;;;;;;7.67;5.10;;;;;;;;;;5072957;28;20251;-52
2022/07/30 08:52:54;;;;;;;5.37;4.87;;;;;;;;;;5072347;28;20215;-52
2022/07/30 08:55:20;;;;;;;7.03;5.63;;;;;;;;;;5073039;28;20324;-52
2022/07/30 08:57:46;;;;;;;4.70;4.10;;;;;;;;;;5072925;28;20668;-51
2022/07/30 09:00:13;;;;;;;6.47;5.40;;;;;;;;;;5072764;28;20199;-52
2022/07/30 09:02:39;;;;;;;5.70;5.10;;;;;;;;;;5072482;28;20199;-52
2022/07/30 09:05:06;;;;;;;5.47;4.90;;;;;;;;;;5071019;28;20219;-52
2022/07/30 09:07:33;;;;;;;6.67;5.10;;;;;;;;;;5072073;28;20230;-53
2022/07/30 09:09:59;;;;;;;7.00;4.93;;;;;;;;;;5072371;28;20637;-51
2022/07/30 09:12:32;;;;;;;7.47;5.43;;;;;;;;;;5072295;28;20692;-52
2022/07/30 09:15:02;;;;;;;6.83;5.27;;;;;;;;;;5072555;28;20203;-52
2022/07/30 09:17:28;;;;;;;6.20;5.60;;;;;;;;;;5072410;28;20203;-53
2022/07/30 09:20:02;;;;;;;7.13;4.90;;;;;;;;;;5072468;28;20195;-52
2022/07/30 09:22:41;;;;;;;4.87;4.40;;;;;;;;;;5072273;28;20673;-52
2022/07/30 09:25:07;;;;;;;5.80;5.20;;;;;;;;;;5072629;28;20206;-52
2022/07/30 09:27:43;;;;;;;4.90;4.50;;;;;;;;;;5072137;28;20294;-52
2022/07/30 09:30:09;;;;;;;6.13;5.10;;;;;;;;;;5072002;28;20227;-52
2022/07/30 09:32:47;;;;;;;9.27;4.97;;;;;;;;;;5072192;28;20261;-52
2022/07/30 09:35:14;;;;;;;6.23;5.50;;;;;;;;;;5072245;28;20260;-52
2022/07/30 09:37:41;;;;;;;5.53;5.00;;;;;;;;;;5072218;28;20602;-53
2022/07/30 09:40:11;;;;;;;7.43;6.50;;;;;;;;;;5072169;28;20290;-52
2022/07/30 09:42:38;;;;;;;9.20;5.83;;;;;;;;;;5071920;28;20199;-52
2022/07/30 09:45:08;;;;;;;5.10;4.60;;;;;;;;;;5071376;28;20252;-52
2022/07/30 09:47:36;;;;;;;10.27;5.40;;;;;;;;;;5071885;28;20227;-52
2022/07/30 09:50:04;;;;;;;11.03;6.33;;;;;;;;;;5071765;28;20231;-52
2022/07/30 09:52:30;;;;;;;7.30;6.00;;;;;;;;;;5071755;28;20199;-53
2022/07/30 09:54:57;;;;;;;5.70;5.10;;;;;;;;;;5071637;28;20228;-53
2022/07/30 09:57:23;;;;;;;4.77;4.37;;;;;;;;;;5071899;28;20276;-52
2022/07/30 09:59:49;;;;;;;6.33;4.37;;;;;;;;;;5072034;28;20612;-53
2022/07/30 10:02:15;;;;;;;6.13;4.53;;;;;;;;;;5072083;28;20246;-53
2022/07/30 10:04:42;;;;;;;5.10;4.47;;;;;;;;;;5071738;28;20195;-52
2022/07/30 10:07:17;;;;;;;4.00;3.60;;;;;;;;;;5071856;28;20211;-52
2022/07/30 10:09:44;;;;;;;7.50;4.30;;;;;;;;;;5071598;28;20268;-53
2022/07/30 10:12:13;;;;;;;5.73;4.03;;;;;;;;;;5071554;28;20290;-52
2022/07/30 10:14:41;;;;;;;4.67;3.50;;;;;;;;;;5071698;28;20754;-52
2022/07/30 10:17:07;;;;;;;11.67;4.07;;;;;;;;;;5071390;28;20196;-53
2022/07/30 10:19:35;;;;;;;6.83;4.13;;;;;;;;;;5070443;28;20195;-53
2022/07/30 10:22:02;;;;;;;5.57;3.73;;;;;;;;;;5071631;28;20577;-53
2022/07/30 10:24:30;;;;;;;6.20;3.40;;;;;;;;;;5071430;28;20199;-52
2022/07/30 10:26:56;;;;;;;4.67;3.50;;;;;;;;;;5071819;28;20225;-53
2022/07/30 10:29:23;;;;;;;5.10;3.20;;;;;;;;;;5071603;28;20222;-52
2022/07/30 10:31:50;;;;;;;8.70;3.40;;;;;;;;;;5071721;28;20200;-55
2022/07/30 10:34:17;;;;;;;3.80;3.50;;;;;;;;;;5071499;28;20223;-53
2022/07/30 10:36:45;;;;;;;4.93;3.53;;;;;;;;;;5071572;28;20667;-53
2022/07/30 10:39:14;;;;;;;6.03;3.37;;;;;;;;;;5071691;28;20191;-52
2022/07/30 10:41:44;;;;;;;5.37;3.40;;;;;;;;;;5071608;28;20223;-52
2022/07/30 10:44:18;;;;;;;5.57;3.40;;;;;;;;;;5071366;28;20235;-52
2022/07/30 10:46:51;;;;;;;5.43;3.40;;;;;;;;;;5071632;28;20209;-52
2022/07/30 10:49:18;;;;;;;3.70;3.10;;;;;;;;;;5071286;28;20221;-52
2022/07/30 10:51:46;;;;;;;7.83;3.20;;;;;;;;;;5071753;28;20199;-53
2022/07/30 10:54:30;;;;;;;3.73;3.23;;;;;;;;;;5071258;28;20295;-52
2022/07/30 10:57:03;;;;;;;5.27;3.67;;;;;;;;;;5071397;28;20193;-53
2022/07/30 10:59:28;;;;;;;3.83;3.00;;;;;;;;;;5070146;28;20662;-52
2022/07/30 11:02:11;;;;;;;4.70;3.60;;;;;;;;;;5070895;28;20205;-52
2022/07/30 11:04:37;;;;;;;3.53;3.20;;;;;;;;;;5071397;28;20621;-52
2022/07/30 11:07:22;;;;;;;4.50;3.27;;;;;;;;;;5071150;28;20193;-53
2022/07/30 11:09:49;;;;;;;6.10;3.67;;;;;;;;;;5071487;28;20233;-52
2022/07/30 11:12:15;;;;;;;3.90;3.50;;;;;;;;;;5071498;28;20291;-52
2022/07/30 11:14:57;;;;;;;5.67;4.10;;;;;;;;;;5070932;28;20844;-53
2022/07/30 11:17:25;;;;;;;5.83;3.50;;;;;;;;;;5070868;28;20217;-52
2022/07/30 11:20:09;;;;;;;6.53;3.67;;;;;;;;;;5071417;28;20735;-51
2022/07/30 11:22:37;;;;;;;4.87;3.33;;;;;;;;;;5071057;28;20209;-52
2022/07/30 11:25:03;;;;;;;3.50;2.90;;;;;;;;;;5071317;28;20202;-52
2022/07/30 11:27:37;;;;;;;16.43;14.67;;;;;;;;;;5071476;28;20202;-52
2022/07/30 11:30:26;;;;;;;8.20;3.10;;;;;;;;;;5053382;28;20703;-52
2022/07/30 11:32:54;;;;;;;3.43;2.93;;;;;;;;;;5074887;28;20188;-53
2022/07/30 11:35:21;;;;;;;3.33;3.03;;;;;;;;;;5075007;28;20569;-53
2022/07/30 11:37:57;;;;;;;8.03;3.60;;;;;;;;;;5075221;28;20218;-53
2022/07/30 11:40:24;;;;;;;5.43;3.30;;;;;;;;;;5075040;28;20246;-53
2022/07/30 11:42:50;;;;;;;5.07;3.00;;;;;;;;;;5075003;28;20230;-54
2022/07/30 11:45:25;;;;;;;8.00;3.20;;;;;;;;;;5074787;28;20224;-53
2022/07/30 11:47:52;;;;;;;3.80;2.70;;;;;;;;;;5074535;28;20199;-53
2022/07/30 11:50:20;;;;;;;4.03;3.27;;;;;;;;;;5074611;28;20750;-53
2022/07/30 11:52:49;;;;;;;4.60;2.67;;;;;;;;;;5074758;28;20755;-58
2022/07/30 11:55:22;;;;;;;5.60;3.00;;;;;;;;;;5074650;28;20651;-53
2022/07/30 11:57:48;;;;;;;9.77;3.27;;;;;;;;;;5074776;28;20199;-53
2022/07/30 12:00:16;;;;;;;3.63;3.00;;;;;;;;;;5074580;28;20283;-54
2022/07/30 12:02:47;;;;;;;4.20;2.80;;;;;;;;;;5074587;28;20257;-56
2022/07/30 12:05:13;;;;;;;3.27;2.97;;;;;;;;;;5074659;28;20196;-53
2022/07/30 12:07:40;;;;;;;3.43;2.80;;;;;;;;;;5074388;28;20208;-53
2022/07/30 12:10:13;;;;;;;4.03;2.83;;;;;;;;;;5074429;28;20225;-55
2022/07/30 12:12:39;;;;;;;3.93;3.00;;;;;;;;;;5074112;28;20198;-55
2022/07/30 12:15:06;;;;;;;4.97;2.83;;;;;;;;;;5074137;28;20220;-56
2022/07/30 12:17:40;;;;;;;6.03;2.70;;;;;;;;;;5073994;28;20198;-55
2022/07/30 12:20:13;;;;;;;3.53;2.50;;;;;;;;;;5072292;28;20203;-56
2022/07/30 12:22:40;;;;;;;3.97;2.70;;;;;;;;;;5071205;28;20211;-57
2022/07/30 12:25:07;;;;;;;5.23;3.13;;;;;;;;;;5073550;28;20242;-56
2022/07/30 12:27:33;;;;;;;2.97;2.60;;;;;;;;;;5073387;28;20207;-56
2022/07/30 12:29:59;;;;;;;4.13;2.70;;;;;;;;;;5073712;28;20241;-56
2022/07/30 12:32:26;;;;;;;8.90;8.10;;;;;;;;;;5073593;28;20200;-56
2022/07/30 12:34:55;;;;;;;5.47;2.60;;;;;;;;;;5073762;28;20214;-56
2022/07/30 12:37:21;;;;;;;4.72;2.70;;;;;;;;;;5072274;28;20443;-56
2022/07/30 12:39:48;;;;;;;4.82;2.70;;;;;;;;;;5072451;28;20909;-54
2022/07/30 12:42:17;;;;;;;4.90;2.58;;;;;;;;;;5071564;28;20894;-56
2022/07/30 12:44:43;;;;;;;3.77;2.50;;;;;;;;;;5073199;28;20333;-56
2022/07/30 12:47:24;;;;;;;5.70;3.80;;;;;;;;;;5073529;28;20219;-56
2022/07/30 12:49:51;;;;;;;3.07;2.53;;;;;;;;;;5073043;28;20316;-56
2022/07/30 12:52:22;;;;;;;5.10;2.50;;;;;;;;;;5072890;28;20199;-56
2022/07/30 12:54:57;;;;;;;8.17;2.57;;;;;;;;;;5072918;28;20200;-55
2022/07/30 12:57:23;;;;;;;6.23;2.60;;;;;;;;;;5072722;28;20217;-55
2022/07/30 13:00:00;;;;;;;4.33;2.63;;;;;;;;;;5072845;28;20251;-55
2022/07/30 13:02:30;;;;;;;4.10;2.60;;;;;;;;;;5072386;28;20698;-55
2022/07/30 13:04:56;;;;;;;4.03;3.00;;;;;;;;;;5072900;28;20197;-55
2022/07/30 13:07:22;;;;;;;5.03;2.63;;;;;;;;;;5071432;28;20414;-55
2022/07/30 13:10:05;;;;;;;4.30;2.80;;;;;;;;;;5071609;28;20426;-55
2022/07/30 13:12:32;;;;;;;4.72;2.80;;;;;;;;;;5071403;28;20487;-55
2022/07/30 13:14:58;;;;;;;5.03;2.95;;;;;;;;;;5071466;28;20411;-55
2022/07/30 13:17:24;;;;;;;4.25;2.50;;;;;;;;;;5071203;28;20739;-55
2022/07/30 13:19:50;;;;;;;4.68;4.18;;;;;;;;;;5071342;28;20384;-55
2022/07/30 13:22:16;;;;;;;3.83;3.20;;;;;;;;;;5071288;28;20400;-55
2022/07/30 13:24:42;;;;;;;5.28;2.90;;;;;;;;;;5071234;28;20762;-55
2022/07/30 13:27:08;;;;;;;4.30;2.65;;;;;;;;;;5070798;28;20404;-55
2022/07/30 13:29:35;;;;;;;5.07;2.75;;;;;;;;;;5070440;28;20435;-56
2022/07/30 13:32:01;;;;;;;3.53;2.70;;;;;;;;;;5071266;28;20415;-56
2022/07/30 13:34:27;;;;;;;4.27;2.67;;;;;;;;;;5072178;28;20209;-56
2022/07/30 13:36:53;;;;;;;3.73;2.90;;;;;;;;;;5072228;28;20260;-55
2022/07/30 13:39:19;;;;;;;4.03;2.93;;;;;;;;;;5071899;28;20226;-55
2022/07/30 13:41:45;;;;;;;4.60;2.53;;;;;;;;;;5072261;28;20202;-56
2022/07/30 13:44:11;;;;;;;4.90;2.73;;;;;;;;;;5071723;28;20250;-57
2022/07/30 13:46:39;;;;;;;4.30;2.77;;;;;;;;;;5071993;28;20204;-56
2022/07/30 13:49:05;;;;;;;3.95;2.70;;;;;;;;;;5070613;28;20860;-55
2022/07/30 13:51:31;;;;;;;3.40;2.77;;;;;;;;;;5071921;28;20205;-55
2022/07/30 13:53:57;;;;;;;4.80;2.90;;;;;;;;;;5072023;28;20199;-56
2022/07/30 13:56:23;;;;;;;4.33;2.80;;;;;;;;;;5071751;28;20693;-55
2022/07/30 13:58:48;;;;;;;5.10;3.90;;;;;;;;;;5071862;28;20223;-56
2022/07/30 14:01:14;;;;;;;5.50;3.00;;;;;;;;;;5071899;28;20244;-57
2022/07/30 14:03:42;;;;;;;5.83;2.80;;;;;;;;;;5071800;28;20223;-56
2022/07/30 14:06:08;;;;;;;3.00;2.77;;;;;;;;;;5071840;28;20581;-56
2022/07/30 14:08:34;;;;;;;3.40;2.90;;;;;;;;;;5071650;28;20281;-56
2022/07/30 14:11:02;;;;;;;7.57;5.43;;;;;;;;;;5071810;28;20223;-57
2022/07/30 14:13:29;;;;;;;3.13;2.83;;;;;;;;;;5071488;28;20200;-57
2022/07/30 14:15:54;;;;;;;3.57;2.90;;;;;;;;;;5071763;28;20207;-56
2022/07/30 14:18:20;;;;;;;5.67;2.90;;;;;;;;;;5071583;28;20196;-57
2022/07/30 14:20:48;;;;;;;4.23;2.73;;;;;;;;;;5071833;28;20200;-56
2022/07/30 14:23:14;;;;;;;6.47;2.92;;;;;;;;;;5070456;28;20403;-56
2022/07/30 14:25:42;;;;;;;5.07;2.97;;;;;;;;;;5070436;28;20404;-56
2022/07/30 14:28:08;;;;;;;4.10;2.80;;;;;;;;;;5070151;28;20424;-56
2022/07/30 14:30:36;;;;;;;4.82;3.13;;;;;;;;;;5069421;28;20469;-57
2022/07/30 14:33:01;;;;;;;4.00;2.50;;;;;;;;;;5070273;28;20793;-56
2022/07/30 14:35:27;;;;;;;8.20;2.92;;;;;;;;;;5070167;28;20402;-56
2022/07/30 14:37:55;;;;;;;6.22;3.05;;;;;;;;;;5070365;28;20427;-55
2022/07/30 14:40:23;;;;;;;6.22;2.90;;;;;;;;;;5069994;28;20403;-56
2022/07/30 14:42:49;;;;;;;4.15;2.67;;;;;;;;;;5069897;28;20418;-57
2022/07/30 14:45:15;;;;;;;4.57;2.67;;;;;;;;;;5070175;28;20473;-57